Time;durP1;ratioP1;P1;durP2;ratioP2;P2;SDS_P1;SDS_P2;PMS_P1;PMS_P2;Temp;Humidity;BMP_temperature;BMP_pressure;BME280_temperature;BME280_humidity;BME280_pressure;Samples;Min_cycle;Max_cycle;Signal;HPM_P1;HPM_P2
2024/02/11 00:00:32;;;;;;;2.90;0.60;;;;;;;9.53;100.00;98237.34;4985049;28;20102;-65
2024/02/11 00:02:58;;;;;;;5.15;1.55;;;;;;;9.53;100.00;98237.34;4987324;28;20386;-65
2024/02/11 00:05:27;;;;;;;3.42;1.00;;;;;;;9.53;100.00;98239.94;4980493;28;20339;-65
2024/02/11 00:07:53;;;;;;;5.38;0.90;;;;;;;9.55;100.00;98237.16;4982818;28;20471;-65
2024/02/11 00:10:19;;;;;;;1.75;0.45;;;;;;;9.59;100.00;98239.19;4989885;28;20034;-65
2024/02/11 00:12:45;;;;;;;5.90;0.98;;;;;;;9.62;100.00;98238.78;4984443;28;20065;-65
2024/02/11 00:15:10;;;;;;;5.03;0.85;;;;;;;9.63;100.00;98237.81;4984537;28;20066;-65
2024/02/11 00:17:37;;;;;;;5.68;0.45;;;;;;;9.67;100.00;98227.81;4982988;28;20061;-65
2024/02/11 00:20:05;;;;;;;4.00;0.98;;;;;;;9.67;100.00;98227.81;4991646;28;20041;-65
2024/02/11 00:22:30;;;;;;;1.95;0.55;;;;;;;9.65;100.00;98222.81;5001762;28;20144;-65
2024/02/11 00:24:56;;;;;;;1.75;0.50;;;;;;;9.62;100.00;98223.19;4989215;28;20121;-65
2024/02/11 00:27:24;;;;;;;4.35;0.50;;;;;;;9.59;100.00;98220.97;4989439;28;20037;-65
2024/02/11 00:29:51;;;;;;;5.22;0.80;;;;;;;9.58;100.00;98219.38;4990709;28;20073;-65
2024/02/11 00:32:17;;;;;;;4.68;0.70;;;;;;;9.56;100.00;98216.16;4977142;28;20054;-65
2024/02/11 00:34:43;;;;;;;2.78;0.77;;;;;;;9.56;100.00;98210.97;4977463;28;20027;-65
2024/02/11 00:37:11;;;;;;;1.90;0.70;;;;;;;9.56;100.00;98215.34;4995035;28;20050;-65
2024/02/11 00:39:37;;;;;;;2.83;0.80;;;;;;;9.53;100.00;98211.34;4990299;28;20405;-65
2024/02/11 00:42:03;;;;;;;2.20;0.45;;;;;;;9.53;100.00;98208.75;4988315;28;20435;-65
2024/02/11 00:44:32;;;;;;;4.80;1.00;;;;;;;9.56;100.00;98210.16;4994997;28;20117;-65
2024/02/11 00:47:00;;;;;;;4.43;0.90;;;;;;;9.57;100.00;98212.56;4988521;28;20459;-65
2024/02/11 00:49:26;;;;;;;1.67;0.63;;;;;;;9.57;100.00;98212.56;4995106;28;20027;-65
2024/02/11 00:51:54;;;;;;;6.40;0.75;;;;;;;9.56;100.00;98208.38;4992379;28;20057;-65
2024/02/11 00:54:20;;;;;;;2.30;0.50;;;;;;;9.58;100.00;98211.56;4995932;28;20042;-65
2024/02/11 00:56:45;;;;;;;5.22;1.23;;;;;;;9.58;100.00;98205.56;4990475;28;20506;-64
2024/02/11 00:59:15;;;;;;;5.38;0.80;;;;;;;9.58;100.00;98211.56;4988671;28;20041;-64
2024/02/11 01:01:41;;;;;;;3.05;0.70;;;;;;;9.56;100.00;98203.16;4986574;28;20042;-65
2024/02/11 01:04:07;;;;;;;2.63;0.50;;;;;;;9.55;100.00;98203.34;4987592;28;20030;-65
2024/02/11 01:06:33;;;;;;;3.70;0.60;;;;;;;9.54;100.00;98202.56;4994638;28;20044;-64
2024/02/11 01:08:59;;;;;;;1.92;0.60;;;;;;;9.56;100.00;98194.56;4989853;28;20143;-65
2024/02/11 01:11:25;;;;;;;6.47;1.00;;;;;;;9.56;100.00;98195.38;4997048;28;20390;-65
2024/02/11 01:13:50;;;;;;;5.07;0.90;;;;;;;9.56;100.00;98191.97;4991939;28;20038;-65
2024/02/11 01:16:16;;;;;;;1.63;0.55;;;;;;;9.56;100.00;98189.38;4991824;28;20042;-65
2024/02/11 01:18:43;;;;;;;6.25;0.55;;;;;;;9.56;100.00;98190.16;5002325;28;20113;-64
2024/02/11 01:21:09;;;;;;;1.58;0.50;;;;;;;9.53;100.00;98185.34;4989937;28;20093;-65
2024/02/11 01:23:35;;;;;;;3.05;0.40;;;;;;;9.53;100.00;98174.94;4991494;28;20058;-65
2024/02/11 01:26:00;;;;;;;3.53;0.22;;;;;;;9.51;100.00;98179.53;4988153;28;20117;-64
2024/02/11 01:28:27;;;;;;;3.53;0.20;;;;;;;9.50;100.00;98170.13;4991127;28;20034;-65
2024/02/11 01:30:53;;;;;;;3.25;0.10;;;;;;;9.51;100.00;98160.53;4992165;28;20482;-65
2024/02/11 01:33:18;;;;;;;0.77;0.13;;;;;;;9.47;100.00;98165.31;5008800;28;20036;-64
2024/02/11 01:35:43;;;;;;;0.60;0.20;;;;;;;9.46;100.00;98152.53;4997963;28;20026;-64
2024/02/11 01:38:10;;;;;;;1.23;0.10;;;;;;;9.44;100.00;98151.94;4985339;28;20050;-65
2024/02/11 01:40:35;;;;;;;1.25;0.10;;;;;;;9.44;100.00;98151.94;4983412;28;20039;-65
2024/02/11 01:43:09;;;;;;;4.68;0.10;;;;;;;9.47;100.00;98154.13;4973667;28;20418;-65
2024/02/11 01:45:36;;;;;;;1.38;0.10;;;;;;;9.46;100.00;98145.53;4991346;28;20137;-64
2024/02/11 01:48:08;;;;;;;4.32;0.20;;;;;;;9.45;100.00;98145.75;4995113;28;20097;-65
2024/02/11 01:50:36;;;;;;;1.40;0.10;;;;;;;9.41;100.00;98145.34;4985430;28;20126;-64
2024/02/11 01:53:03;;;;;;;3.40;0.10;;;;;;;9.37;100.00;98146.72;4986727;28;20039;-65
2024/02/11 01:55:29;;;;;;;0.30;0.03;;;;;;;9.36;100.00;98139.09;4984294;28;20034;-65
2024/02/11 01:57:56;;;;;;;2.65;0.10;;;;;;;9.39;100.00;98136.94;4993253;28;20031;-65
2024/02/11 02:00:23;;;;;;;4.97;0.17;;;;;;;9.38;100.00;98129.31;4978547;28;20033;-64
2024/02/11 02:02:54;;;;;;;3.72;0.10;;;;;;;9.40;100.00;98125.53;4984266;28;20030;-65
2024/02/11 02:05:20;;;;;;;4.47;0.10;;;;;;;9.39;100.00;98121.34;4994918;28;20042;-65
2024/02/11 02:07:45;;;;;;;2.55;0.17;;;;;;;9.41;100.00;98123.75;4999102;28;20509;-64
2024/02/11 02:10:10;;;;;;;0.57;0.03;;;;;;;9.42;100.00;98112.34;4988643;28;20076;-64
2024/02/11 02:12:36;;;;;;;1.48;0.10;;;;;;;9.39;100.00;98110.94;4986113;28;20116;-64
2024/02/11 02:15:03;;;;;;;3.05;0.03;;;;;;;9.39;100.00;98108.34;4984797;28;20034;-64
2024/02/11 02:17:28;;;;;;;0.08;0.00;;;;;;;9.37;100.00;98107.72;4987639;28;20045;-65
2024/02/11 02:19:53;;;;;;;0.95;0.20;;;;;;;9.35;100.00;98104.53;4976552;28;20030;-65
2024/02/11 02:22:19;;;;;;;2.15;0.00;;;;;;;9.31;100.00;98103.31;4986258;28;20156;-64
2024/02/11 02:24:45;;;;;;;0.93;0.08;;;;;;;9.28;100.00;98095.88;4985268;28;20046;-65
2024/02/11 02:27:14;;;;;;;0.95;0.03;;;;;;;9.29;100.00;98100.09;4978111;28;20034;-64
2024/02/11 02:29:40;;;;;;;0.20;0.10;;;;;;;9.29;100.00;98093.09;4982979;28;20126;-65
2024/02/11 02:32:06;;;;;;;0.40;0.00;;;;;;;9.24;100.00;98081.69;4985796;28;20410;-64
2024/02/11 02:34:31;;;;;;;4.25;0.10;;;;;;;9.27;100.00;98078.69;5004413;28;20033;-64
2024/02/11 02:36:57;;;;;;;0.52;0.00;;;;;;;9.28;100.00;98083.69;4984675;28;20454;-65
2024/02/11 02:39:24;;;;;;;1.35;0.10;;;;;;;9.29;100.00;98076.72;4969255;28;20031;-65
2024/02/11 02:41:50;;;;;;;0.57;0.00;;;;;;;9.32;100.00;98081.53;4986777;28;20045;-66
2024/02/11 02:44:15;;;;;;;0.47;0.00;;;;;;;9.30;100.00;98076.50;4990206;28;20034;-66
2024/02/11 02:46:41;;;;;;;3.17;0.10;;;;;;;9.29;100.00;98074.09;4991398;28;20038;-65
2024/02/11 02:49:07;;;;;;;1.60;0.10;;;;;;;9.26;100.00;98077.09;4988802;28;20050;-66
2024/02/11 02:51:33;;;;;;;0.50;0.10;;;;;;;9.25;100.00;98078.09;4980649;28;20203;-66
2024/02/11 02:54:02;;;;;;;1.15;0.03;;;;;;;9.32;100.00;98079.72;4996359;28;20109;-67
2024/02/11 02:56:27;;;;;;;2.75;0.10;;;;;;;9.38;100.00;98070.34;4983728;28;20036;-67
2024/02/11 02:58:53;;;;;;;2.10;0.20;;;;;;;9.39;100.00;98073.75;4980016;28;20113;-66
2024/02/11 03:01:22;;;;;;;2.20;0.10;;;;;;;9.39;100.00;98074.56;4985819;28;20499;-66
2024/02/11 03:03:49;;;;;;;2.25;0.13;;;;;;;9.40;100.00;98067.56;4991699;28;20096;-66
2024/02/11 03:06:15;;;;;;;3.90;0.20;;;;;;;9.34;100.00;98063.94;4983636;28;20498;-66
2024/02/11 03:08:40;;;;;;;0.20;0.00;;;;;;;9.30;100.00;98068.72;4980758;28;20466;-66
2024/02/11 03:11:06;;;;;;;0.15;0.00;;;;;;;9.31;100.00;98064.31;4989498;28;20045;-65
2024/02/11 03:13:31;;;;;;;2.45;0.00;;;;;;;9.29;100.00;98061.13;4985281;28;20027;-66
2024/02/11 03:15:58;;;;;;;2.10;0.00;;;;;;;9.28;100.00;98062.13;4983061;28;20045;-66
2024/02/11 03:18:24;;;;;;;1.85;0.10;;;;;;;9.28;100.00;98052.53;4996441;28;20125;-65
2024/02/11 03:20:49;;;;;;;0.93;0.20;;;;;;;9.28;100.00;98056.91;4989531;28;20109;-66
2024/02/11 03:23:15;;;;;;;2.25;0.20;;;;;;;9.27;100.00;98057.91;4988003;28;20038;-66
2024/02/11 03:25:40;;;;;;;1.80;0.63;;;;;;;9.28;100.00;98052.53;4981579;28;20406;-65
2024/02/11 03:28:07;;;;;;;0.40;0.10;;;;;;;9.29;100.00;98043.72;4980542;28;20121;-65
2024/02/11 03:30:32;;;;;;;0.85;0.10;;;;;;;9.28;100.00;98042.13;4989654;28;20042;-65
2024/02/11 03:32:58;;;;;;;1.85;0.03;;;;;;;9.23;100.00;98039.31;4982959;28;20081;-65
2024/02/11 03:35:23;;;;;;;0.43;0.00;;;;;;;9.21;100.00;98040.50;4987490;28;20040;-65
2024/02/11 03:37:49;;;;;;;0.15;0.00;;;;;;;9.15;100.00;98044.66;4987794;28;20133;-65
2024/02/11 03:40:16;;;;;;;0.30;0.00;;;;;;;9.10;100.00;98035.84;4988737;28;20030;-65
2024/02/11 03:42:43;;;;;;;0.10;0.00;;;;;;;9.08;100.00;98038.63;4985527;28;20034;-65
2024/02/11 03:45:09;;;;;;;4.20;0.00;;;;;;;9.06;100.00;98043.22;4988129;28;20026;-65
2024/02/11 03:47:35;;;;;;;0.05;0.00;;;;;;;9.03;100.00;98043.63;5000886;28;20049;-65
2024/02/11 03:50:02;;;;;;;0.00;0.00;;;;;;;9.03;100.00;98035.03;4994354;28;20508;-65
2024/02/11 03:52:28;;;;;;;0.00;0.00;;;;;;;9.04;100.00;98034.03;4980371;28;20045;-65
2024/02/11 03:54:55;;;;;;;0.00;0.00;;;;;;;9.03;100.00;98029.81;4994183;28;20030;-65
2024/02/11 03:57:20;;;;;;;0.30;0.00;;;;;;;9.01;100.00;98037.81;4993199;28;20091;-65
2024/02/11 03:59:46;;;;;;;0.75;0.00;;;;;;;8.99;100.00;98027.63;4995492;28;20054;-64
2024/02/11 04:02:11;;;;;;;0.25;0.00;;;;;;;9.01;100.00;98026.63;4995780;28;20145;-64
2024/02/11 04:04:40;;;;;;;0.03;0.00;;;;;;;9.02;100.00;98034.22;5003423;28;20038;-65
2024/02/11 04:07:11;;;;;;;0.00;0.00;;;;;;;9.02;100.00;98025.63;4996074;28;20096;-65
2024/02/11 04:09:39;;;;;;;0.20;0.00;;;;;;;9.01;100.00;98024.81;4988770;28;20039;-64
2024/02/11 04:12:08;;;;;;;0.10;0.00;;;;;;;9.03;100.00;98027.22;4979832;28;20030;-65
2024/02/11 04:14:36;;;;;;;1.45;0.00;;;;;;;9.04;100.00;98029.63;4991561;28;20061;-65
2024/02/11 04:17:03;;;;;;;0.55;0.00;;;;;;;9.02;100.00;98023.81;4990379;28;20046;-65
2024/02/11 04:19:32;;;;;;;0.10;0.00;;;;;;;9.04;100.00;98021.84;4989601;28;20033;-65
2024/02/11 04:21:58;;;;;;;0.40;0.00;;;;;;;9.07;100.00;98025.84;4979630;28;20034;-65
2024/02/11 04:24:28;;;;;;;1.75;0.10;;;;;;;9.08;100.00;98019.66;5000124;28;20121;-65
2024/02/11 04:26:57;;;;;;;3.08;0.30;;;;;;;9.08;100.00;98022.25;4997689;28;20485;-65
2024/02/11 04:29:23;;;;;;;1.45;0.43;;;;;;;9.12;100.00;98020.88;4991839;28;20042;-65
2024/02/11 04:31:50;;;;;;;2.45;0.40;;;;;;;9.16;100.00;98024.69;4994273;28;20034;-64
2024/02/11 04:34:17;;;;;;;6.82;0.47;;;;;;;9.18;100.00;98022.69;4993962;28;20061;-65
2024/02/11 04:36:43;;;;;;;2.65;0.60;;;;;;;9.20;100.00;98018.09;4981660;28;20035;-64
2024/02/11 04:39:08;;;;;;;2.55;0.40;;;;;;;9.22;100.00;98022.13;4988443;28;20050;-65
2024/02/11 04:41:39;;;;;;;4.55;0.40;;;;;;;9.23;100.00;98021.13;4992339;28;20031;-65
2024/02/11 04:44:05;;;;;;;1.17;0.30;;;;;;;9.23;100.00;98017.72;4989606;28;20030;-65
2024/02/11 04:46:34;;;;;;;2.38;0.43;;;;;;;9.23;100.00;98023.72;4990396;28;20039;-66
2024/02/11 04:48:59;;;;;;;2.45;0.35;;;;;;;9.22;100.00;98021.31;4988996;28;20037;-66
2024/02/11 04:51:28;;;;;;;1.00;0.30;;;;;;;9.24;100.00;98019.31;4992062;28;20482;-65
2024/02/11 04:53:54;;;;;;;1.45;0.60;;;;;;;9.22;100.00;98019.53;4993894;28;20109;-65
2024/02/11 04:56:19;;;;;;;2.78;0.30;;;;;;;9.23;100.00;98020.31;4987778;28;20432;-65
2024/02/11 04:58:45;;;;;;;2.85;0.47;;;;;;;9.19;100.00;98021.69;4997898;28;20031;-65
2024/02/11 05:01:10;;;;;;;0.85;0.28;;;;;;;9.19;100.00;98032.09;4995277;28;20026;-65
2024/02/11 05:03:36;;;;;;;2.47;0.30;;;;;;;9.18;100.00;98027.91;4985147;28;20167;-64
2024/02/11 05:06:01;;;;;;;2.72;0.60;;;;;;;9.20;100.00;98029.31;4990600;28;20038;-65
2024/02/11 05:08:27;;;;;;;3.63;0.80;;;;;;;9.21;100.00;98037.91;4994306;28;20390;-65
2024/02/11 05:10:52;;;;;;;1.33;0.43;;;;;;;9.20;100.00;98034.50;4989201;28;20038;-65
2024/02/11 05:13:19;;;;;;;2.50;0.60;;;;;;;9.21;100.00;98040.50;4982598;28;20478;-65
2024/02/11 05:15:48;;;;;;;5.47;0.65;;;;;;;9.21;100.00;98048.28;4986233;28;20066;-65
2024/02/11 05:18:15;;;;;;;2.75;0.80;;;;;;;9.16;100.00;98042.88;4995045;28;20049;-64
2024/02/11 05:20:41;;;;;;;3.70;0.52;;;;;;;9.16;100.00;98050.66;4985996;28;20034;-65
2024/02/11 05:23:11;;;;;;;5.70;0.63;;;;;;;9.17;100.00;98057.47;4993704;28;20033;-65
2024/02/11 05:25:39;;;;;;;3.38;0.60;;;;;;;9.18;100.00;98056.47;4982130;28;20393;-65
2024/02/11 05:28:09;;;;;;;1.88;0.60;;;;;;;9.18;100.00;98056.47;4986841;28;20474;-65
2024/02/11 05:30:42;;;;;;;2.70;0.43;;;;;;;9.14;100.00;98066.44;4983062;28;20043;-64
2024/02/11 05:33:08;;;;;;;1.13;0.52;;;;;;;9.13;100.00;98064.03;4982307;28;20031;-65
2024/02/11 05:35:37;;;;;;;0.80;0.32;;;;;;;9.14;100.00;98063.84;4985021;28;20037;-64
2024/02/11 05:38:03;;;;;;;2.08;0.35;;;;;;;9.17;100.00;98060.06;4986134;28;20137;-65
2024/02/11 05:40:30;;;;;;;1.52;0.52;;;;;;;9.17;100.00;98070.47;4975882;28;20370;-64
2024/02/11 05:42:56;;;;;;;3.25;0.45;;;;;;;9.16;100.00;98066.25;4986114;28;20034;-64
2024/02/11 05:45:22;;;;;;;4.03;0.30;;;;;;;9.13;100.00;98064.84;4991198;28;20038;-64
2024/02/11 05:47:49;;;;;;;3.40;0.40;;;;;;;9.12;100.00;98067.63;4983060;28;20050;-65
2024/02/11 05:50:14;;;;;;;1.55;0.20;;;;;;;9.11;100.00;98068.63;4988363;28;20439;-64
2024/02/11 05:52:40;;;;;;;2.17;0.10;;;;;;;9.09;100.00;98068.00;4985502;28;20174;-64
2024/02/11 05:55:09;;;;;;;0.82;0.10;;;;;;;9.09;100.00;98079.22;4981878;28;20035;-65
2024/02/11 05:57:37;;;;;;;0.50;0.20;;;;;;;9.09;100.00;98076.63;4974249;28;20038;-65
2024/02/11 06:00:03;;;;;;;0.40;0.00;;;;;;;9.09;100.00;98081.81;4976689;28;20038;-64
2024/02/11 06:02:29;;;;;;;1.58;0.10;;;;;;;9.08;100.00;98092.38;4985124;28;20532;-65
2024/02/11 06:04:55;;;;;;;0.88;0.10;;;;;;;9.06;100.00;98089.19;4978887;28;20068;-65
2024/02/11 06:07:20;;;;;;;0.17;0.00;;;;;;;9.05;100.00;98087.56;4984026;28;20472;-64
2024/02/11 06:09:46;;;;;;;1.23;0.10;;;;;;;9.06;100.00;98097.78;4980546;28;20053;-64
2024/02/11 06:12:12;;;;;;;0.50;0.10;;;;;;;9.06;100.00;98104.75;4989360;28;20110;-64
2024/02/11 06:14:38;;;;;;;0.30;0.10;;;;;;;9.05;100.00;98103.16;4967089;28;20038;-64
2024/02/11 06:17:06;;;;;;;0.93;0.20;;;;;;;9.03;100.00;98105.94;4994940;28;20040;-64
2024/02/11 06:19:33;;;;;;;1.95;0.20;;;;;;;9.06;100.00;98112.56;5006202;28;20470;-64
2024/02/11 06:21:59;;;;;;;0.60;0.15;;;;;;;9.05;100.00;98121.34;5001464;28;20478;-65
2024/02/11 06:24:24;;;;;;;0.25;0.10;;;;;;;9.07;100.00;98124.56;5003935;28;20094;-64
2024/02/11 06:26:50;;;;;;;0.40;0.10;;;;;;;9.07;100.00;98122.75;4992883;28;20037;-64
2024/02/11 06:29:17;;;;;;;0.10;0.00;;;;;;;9.10;100.00;98122.38;4981231;28;20034;-64
2024/02/11 06:31:43;;;;;;;0.00;0.00;;;;;;;9.11;100.00;98123.19;4985839;28;20042;-63
2024/02/11 06:34:08;;;;;;;0.50;0.00;;;;;;;9.11;100.00;98123.19;4984996;28;20063;-64
2024/02/11 06:36:36;;;;;;;0.17;0.00;;;;;;;9.11;100.00;98125.78;4986673;28;20038;-64
2024/02/11 06:39:04;;;;;;;0.93;0.10;;;;;;;9.12;100.00;98124.78;4987235;28;20073;-63
2024/02/11 06:41:32;;;;;;;0.98;0.10;;;;;;;9.12;100.00;98129.97;4977604;28;20077;-63
2024/02/11 06:44:03;;;;;;;0.28;0.10;;;;;;;9.11;100.00;98133.56;4994515;28;20030;-64
2024/02/11 06:46:29;;;;;;;1.30;0.10;;;;;;;9.14;100.00;98133.19;4979048;28;20090;-63
2024/02/11 06:48:55;;;;;;;1.00;0.15;;;;;;;9.14;100.00;98139.19;4981831;28;20393;-63
2024/02/11 06:51:21;;;;;;;0.35;0.13;;;;;;;9.17;100.00;98149.19;4983428;28;20111;-63
2024/02/11 06:53:46;;;;;;;1.77;0.30;;;;;;;9.18;100.00;98145.59;4978161;28;20038;-63
2024/02/11 06:56:12;;;;;;;0.40;0.20;;;;;;;9.20;100.00;98151.41;4979491;28;20038;-63
2024/02/11 06:58:37;;;;;;;0.40;0.17;;;;;;;9.20;100.00;98156.59;4978619;28;20041;-63
2024/02/11 07:01:08;;;;;;;0.75;0.30;;;;;;;9.21;100.00;98155.63;4986851;28;20499;-63
2024/02/11 07:03:37;;;;;;;1.10;0.20;;;;;;;9.23;100.00;98166.63;4987946;28;20038;-63
2024/02/11 07:06:06;;;;;;;1.42;0.20;;;;;;;9.25;100.00;98166.44;4990464;28;20555;-63
2024/02/11 07:08:36;;;;;;;0.30;0.10;;;;;;;9.28;100.00;98171.25;4989947;28;20161;-64
2024/02/11 07:11:02;;;;;;;1.10;0.30;;;;;;;9.28;100.00;98171.25;4990540;28;20030;-64
2024/02/11 07:13:28;;;;;;;0.30;0.10;;;;;;;9.29;100.00;98172.84;4976976;28;20116;-64
2024/02/11 07:15:56;;;;;;;0.32;0.08;;;;;;;9.28;100.00;98173.84;4987270;28;20128;-64
2024/02/11 07:18:21;;;;;;;2.22;0.10;;;;;;;9.31;100.00;98181.25;4982363;28;20180;-63
2024/02/11 07:20:47;;;;;;;0.73;0.05;;;;;;;9.31;100.00;98183.84;4989233;28;20117;-64
2024/02/11 07:23:13;;;;;;;0.50;0.10;;;;;;;9.34;100.00;98190.47;4979845;28;20091;-63
2024/02/11 07:25:39;;;;;;;1.27;0.10;;;;;;;9.35;100.00;98189.47;4991884;28;20034;-63
2024/02/11 07:28:05;;;;;;;0.65;0.10;;;;;;;9.38;100.00;98192.50;4985707;28;20057;-64
2024/02/11 07:30:31;;;;;;;0.30;0.10;;;;;;;9.41;100.00;98192.13;4988457;28;20030;-63
2024/02/11 07:32:56;;;;;;;0.45;0.10;;;;;;;9.43;100.00;98200.53;4982056;28;20497;-63
2024/02/11 07:35:23;;;;;;;1.58;0.30;;;;;;;9.44;100.00;98203.91;4974574;28;20505;-64
2024/02/11 07:37:48;;;;;;;0.90;0.10;;;;;;;9.46;100.00;98202.72;4987690;28;20053;-63
2024/02/11 07:40:16;;;;;;;0.15;0.00;;;;;;;9.49;100.00;98204.94;4979219;28;20027;-64
2024/02/11 07:42:42;;;;;;;1.75;0.00;;;;;;;9.50;100.00;98203.94;4965887;28;20410;-64
2024/02/11 07:45:14;;;;;;;0.38;0.03;;;;;;;9.52;100.00;98207.13;4980806;28;20033;-64
2024/02/11 07:47:44;;;;;;;0.10;0.00;;;;;;;9.53;100.00;98216.53;4978601;28;20359;-64
2024/02/11 07:50:14;;;;;;;1.13;0.10;;;;;;;9.54;100.00;98212.16;4983523;28;20125;-64
2024/02/11 07:52:40;;;;;;;0.30;0.10;;;;;;;9.53;100.00;98224.34;4985057;28;20188;-64
2024/02/11 07:55:07;;;;;;;2.72;0.10;;;;;;;9.55;100.00;98219.75;4980994;28;20121;-64
2024/02/11 07:57:33;;;;;;;0.63;0.10;;;;;;;9.58;100.00;98224.56;4983449;28;20039;-64
2024/02/11 07:59:58;;;;;;;0.30;0.10;;;;;;;9.59;100.00;98225.38;4986648;28;20048;-64
2024/02/11 08:02:24;;;;;;;0.57;0.05;;;;;;;9.60;100.00;98227.78;4987693;28;20391;-64
2024/02/11 08:04:50;;;;;;;0.85;0.10;;;;;;;9.62;100.00;98238.78;4985127;28;20080;-64
2024/02/11 08:07:16;;;;;;;1.05;0.20;;;;;;;9.63;100.00;98240.41;4981152;28;20045;-64
2024/02/11 08:09:41;;;;;;;0.70;0.10;;;;;;;9.66;100.00;98228.81;4985953;28;20038;-65
2024/02/11 08:12:08;;;;;;;0.65;0.20;;;;;;;9.68;100.00;98236.44;4989094;28;20035;-64
2024/02/11 08:14:37;;;;;;;0.73;0.20;;;;;;;9.70;100.00;98234.44;4982127;28;20135;-64
2024/02/11 08:17:03;;;;;;;0.70;0.10;;;;;;;9.70;100.00;98235.22;4977019;28;20057;-64
2024/02/11 08:19:28;;;;;;;0.95;0.10;;;;;;;9.70;100.00;98243.03;4980439;28;20027;-64
2024/02/11 08:21:55;;;;;;;0.70;0.20;;;;;;;9.73;100.00;98242.66;4983056;28;20554;-65
2024/02/11 08:24:20;;;;;;;1.02;0.10;;;;;;;9.73;100.00;98241.84;4985085;28;20030;-64
2024/02/11 08:26:47;;;;;;;0.30;0.10;;;;;;;9.74;100.00;98246.06;4995138;28;20116;-64
2024/02/11 08:29:13;;;;;;;1.35;0.17;;;;;;;9.72;100.00;98245.44;4983541;28;20034;-64
2024/02/11 08:31:39;;;;;;;1.75;0.20;;;;;;;9.73;100.00;98244.44;4990296;28;20561;-66
2024/02/11 08:34:05;;;;;;;0.55;0.10;;;;;;;9.74;100.00;98253.84;4979401;28;20037;-63
2024/02/11 08:36:30;;;;;;;1.75;0.10;;;;;;;9.74;100.00;98248.66;4988141;28;20498;-64
2024/02/11 08:38:58;;;;;;;0.45;0.10;;;;;;;9.75;100.00;98250.25;4981691;28;20578;-66
2024/02/11 08:41:23;;;;;;;0.55;0.10;;;;;;;9.77;100.00;98266.47;4961678;28;20041;-66
2024/02/11 08:43:49;;;;;;;0.52;0.10;;;;;;;9.78;100.00;98271.50;4984431;28;20114;-65
2024/02/11 08:46:15;;;;;;;0.35;0.10;;;;;;;9.80;100.00;98271.28;4996726;28;20041;-66
2024/02/11 08:48:40;;;;;;;1.70;0.10;;;;;;;9.83;100.00;98268.31;4972700;28;20622;-66
2024/02/11 08:51:06;;;;;;;3.78;0.10;;;;;;;9.83;100.00;98269.13;4988514;28;20030;-66
2024/02/11 08:53:32;;;;;;;2.53;0.40;;;;;;;9.87;100.00;98272.13;4990252;28;20068;-66
2024/02/11 08:55:57;;;;;;;0.77;0.20;;;;;;;9.87;100.00;98277.34;4987293;28;20030;-66
2024/02/11 08:58:24;;;;;;;2.13;0.20;;;;;;;9.89;100.00;98272.75;4987222;28;20035;-66
2024/02/11 09:00:50;;;;;;;2.45;0.30;;;;;;;9.93;100.00;98277.34;4982503;28;20026;-66
2024/02/11 09:03:15;;;;;;;0.60;0.10;;;;;;;10.00;100.00;98287.78;4992825;28;20122;-66
2024/02/11 09:05:42;;;;;;;2.28;0.10;;;;;;;9.98;100.00;98282.78;4979878;28;20105;-66
2024/02/11 09:08:07;;;;;;;0.35;0.10;;;;;;;9.99;100.00;98288.78;4989413;28;20034;-65
2024/02/11 09:10:33;;;;;;;2.05;0.30;;;;;;;9.97;100.00;98290.75;4991652;28;20034;-66
2024/02/11 09:12:59;;;;;;;1.17;0.10;;;;;;;10.01;100.00;98291.97;4991468;28;20046;-66
2024/02/11 09:15:24;;;;;;;2.35;0.40;;;;;;;10.01;100.00;98294.59;4985720;28;20542;-66
2024/02/11 09:17:50;;;;;;;0.40;0.15;;;;;;;10.05;100.00;98302.81;4981945;28;20077;-66
2024/02/11 09:20:18;;;;;;;1.85;0.10;;;;;;;10.06;100.00;98301.81;4982616;28;20100;-66
2024/02/11 09:22:44;;;;;;;0.35;0.00;;;;;;;10.10;100.00;98306.44;4985718;28;20117;-66
2024/02/11 09:25:11;;;;;;;2.08;0.08;;;;;;;10.11;100.00;98308.03;4993703;28;20433;-67
2024/02/11 09:27:39;;;;;;;1.67;0.10;;;;;;;10.13;100.00;98313.84;4996835;28;20037;-67
2024/02/11 09:30:07;;;;;;;2.00;0.35;;;;;;;10.13;100.00;98320.88;4983593;28;20043;-66
2024/02/11 09:32:34;;;;;;;0.60;0.03;;;;;;;10.12;100.00;98321.84;4993019;28;20042;-66
2024/02/11 09:35:01;;;;;;;0.80;0.10;;;;;;;10.13;100.00;98323.47;4992401;28;20118;-66
2024/02/11 09:37:26;;;;;;;1.15;0.10;;;;;;;10.15;100.00;98339.69;4994035;28;20469;-66
2024/02/11 09:39:52;;;;;;;1.70;0.20;;;;;;;10.11;100.00;98333.25;4984228;28;20026;-66
2024/02/11 09:42:20;;;;;;;0.50;0.10;;;;;;;10.13;100.00;98337.28;4990866;28;20395;-66
2024/02/11 09:44:50;;;;;;;0.40;0.13;;;;;;;10.15;100.00;98344.91;4988723;28;20453;-67
2024/02/11 09:47:17;;;;;;;5.57;0.10;;;;;;;10.16;100.00;98342.09;4990182;28;20406;-67
2024/02/11 09:49:46;;;;;;;2.35;0.20;;;;;;;10.15;100.00;98340.50;4986418;28;20360;-66
2024/02/11 09:52:14;;;;;;;1.85;0.20;;;;;;;10.15;100.00;98342.28;4980642;28;20078;-67
2024/02/11 09:54:44;;;;;;;0.32;0.10;;;;;;;10.12;100.00;98350.47;4985459;28;20034;-66
2024/02/11 09:57:11;;;;;;;1.25;0.05;;;;;;;10.14;100.00;98353.69;4986397;28;20026;-66
2024/02/11 09:59:37;;;;;;;2.92;0.10;;;;;;;10.16;100.00;98355.09;4984725;28;20096;-66
2024/02/11 10:02:06;;;;;;;3.50;0.10;;;;;;;10.21;100.00;98359.78;4988462;28;20057;-67
2024/02/11 10:04:35;;;;;;;3.28;0.10;;;;;;;10.28;100.00;98361.41;4995861;28;20505;-66
2024/02/11 10:07:05;;;;;;;2.05;0.35;;;;;;;10.35;100.00;98360.63;4975334;28;20145;-67
2024/02/11 10:09:31;;;;;;;0.80;0.13;;;;;;;10.32;100.00;98361.03;4985542;28;20034;-66
2024/02/11 10:11:57;;;;;;;2.78;0.28;;;;;;;10.29;100.00;98357.81;4986652;28;20030;-67
2024/02/11 10:14:28;;;;;;;3.05;0.30;;;;;;;10.29;100.00;98362.22;4981483;28;20105;-63
2024/02/11 10:16:54;;;;;;;0.50;0.20;;;;;;;10.34;100.00;98365.03;4983606;28;20041;-63
2024/02/11 10:19:25;;;;;;;1.95;0.45;;;;;;;10.38;100.00;98368.06;4990919;28;20084;-63
2024/02/11 10:21:51;;;;;;;3.05;0.20;;;;;;;10.33;100.00;98367.84;4989413;28;20089;-63
2024/02/11 10:24:17;;;;;;;1.98;0.20;;;;;;;10.21;100.00;98364.97;4995152;28;20470;-63
2024/02/11 10:26:49;;;;;;;2.70;0.10;;;;;;;10.18;100.00;98362.72;4997090;28;20449;-63
2024/02/11 10:29:17;;;;;;;1.63;0.10;;;;;;;10.18;100.00;98368.72;4988206;28;20041;-63
2024/02/11 10:31:43;;;;;;;1.35;0.10;;;;;;;10.20;100.00;98366.78;4989403;28;20439;-63
2024/02/11 10:34:10;;;;;;;0.40;0.10;;;;;;;10.22;100.00;98364.78;4996950;28;20034;-63
2024/02/11 10:36:37;;;;;;;4.05;0.28;;;;;;;10.25;100.00;98361.78;4989322;28;20043;-64
2024/02/11 10:39:05;;;;;;;1.33;0.20;;;;;;;10.31;100.00;98362.81;4984788;28;20050;-63
2024/02/11 10:41:31;;;;;;;1.70;0.17;;;;;;;10.35;100.00;98365.84;4987141;28;20087;-64
2024/02/11 10:43:57;;;;;;;1.67;0.20;;;;;;;10.41;100.00;98365.03;4984297;28;20038;-64
2024/02/11 10:46:24;;;;;;;2.33;0.10;;;;;;;10.46;100.00;98373.06;4979814;28;20041;-64
2024/02/11 10:48:50;;;;;;;2.15;0.28;;;;;;;10.41;100.00;98365.03;4979968;28;20389;-64
2024/02/11 10:51:23;;;;;;;2.00;0.38;;;;;;;10.37;100.00;98359.44;4979964;28;20041;-63
2024/02/11 10:54:00;;;;;;;7.88;0.30;;;;;;;10.35;100.00;98366.66;4984596;28;20120;-64
2024/02/11 10:56:28;;;;;;;4.60;0.60;;;;;;;10.35;100.00;98377.06;4990127;28;20050;-62
2024/02/11 10:59:02;;;;;;;6.10;0.82;;;;;;;10.32;100.00;98372.25;4982025;28;20022;-63
2024/02/11 11:01:28;;;;;;;8.27;0.60;;;;;;;10.38;100.00;98365.47;4979236;28;20034;-62
2024/02/11 11:03:55;;;;;;;4.07;1.02;;;;;;;10.38;100.00;98368.06;4977535;28;20037;-62
2024/02/11 11:06:24;;;;;;;4.93;0.52;;;;;;;10.38;100.00;98368.06;4980157;28;20394;-63
2024/02/11 11:08:51;;;;;;;4.65;1.33;;;;;;;10.37;100.00;98363.84;4990671;28;20395;-63
2024/02/11 11:11:26;;;;;;;6.78;0.30;;;;;;;10.34;100.00;98359.03;4967435;28;20529;-63
2024/02/11 11:13:54;;;;;;;;;;;;;;;10.36;100.00;98362.25;4986461;28;20061;-63
2024/02/11 11:16:34;;;;;;;4.20;0.50;;;;;;;10.39;100.00;98364.47;4990427;28;19914;-62
2024/02/11 11:19:06;;;;;;;4.72;0.40;;;;;;;10.44;100.00;98364.66;4990282;28;20088;-63
2024/02/11 11:21:32;;;;;;;1.63;0.20;;;;;;;10.45;100.00;98368.88;4994958;28;20501;-63
2024/02/11 11:24:01;;;;;;;4.28;0.22;;;;;;;10.50;100.00;98369.91;4985134;28;20068;-67
2024/02/11 11:26:29;;;;;;;2.58;0.20;;;;;;;10.57;100.00;98369.91;4989151;28;20048;-67
2024/02/11 11:29:02;;;;;;;4.10;0.50;;;;;;;10.56;100.00;98365.72;4980138;28;20034;-67